createdAt,value
2019-02-24T00:01:34.335Z,30.92
2019-02-24T00:04:02.745Z,30.85
2019-02-24T00:06:31.238Z,30.89
2019-02-24T00:08:59.706Z,30.23
2019-02-24T00:11:28.119Z,31.05
2019-02-24T00:13:56.521Z,30.50
2019-02-24T00:16:24.926Z,30.56
2019-02-24T00:18:53.374Z,30.24
2019-02-24T00:21:21.784Z,30.77
2019-02-24T00:23:50.229Z,30.43
2019-02-24T00:26:18.624Z,30.81
2019-02-24T00:28:47.066Z,30.41
2019-02-24T00:31:15.464Z,30.34
2019-02-24T00:33:43.904Z,30.26
2019-02-24T00:36:12.304Z,30.57
2019-02-24T00:38:40.746Z,30.40
2019-02-24T00:41:09.140Z,30.36
2019-02-24T00:43:37.577Z,30.22
2019-02-24T00:46:06.008Z,30.18
2019-02-24T00:48:34.448Z,30.14
2019-02-24T00:51:02.874Z,30.20
2019-02-24T00:53:31.321Z,30.42
2019-02-24T00:55:59.722Z,29.90
2019-02-24T00:58:28.155Z,30.07
2019-02-24T01:00:56.557Z,30.37
2019-02-24T01:03:24.989Z,30.07
2019-02-24T01:05:53.463Z,28.88
2019-02-24T01:08:21.914Z,30.35
2019-02-24T01:10:50.317Z,30.25
2019-02-24T01:13:18.744Z,29.74
2019-02-24T01:15:47.148Z,30.00
2019-02-24T01:18:15.552Z,30.06
2019-02-24T01:20:43.950Z,29.78
2019-02-24T01:23:12.369Z,29.88
2019-02-24T01:25:40.769Z,29.66
2019-02-24T01:28:09.166Z,29.63
2019-02-24T01:30:37.567Z,29.70
2019-02-24T01:33:05.970Z,29.41
2019-02-24T01:35:34.425Z,29.35
2019-02-24T01:38:02.854Z,29.98
2019-02-24T01:40:31.354Z,29.66
2019-02-24T01:42:59.791Z,29.54
2019-02-24T01:45:28.188Z,29.39
2019-02-24T01:47:56.592Z,29.69
2019-02-24T01:50:24.990Z,29.74
2019-02-24T01:52:53.389Z,29.50
2019-02-24T01:55:21.792Z,29.59
2019-02-24T01:57:50.190Z,29.88
2019-02-24T02:00:18.589Z,29.52
2019-02-24T02:02:47.008Z,29.66
2019-02-24T02:05:15.409Z,29.82
2019-02-24T02:07:43.805Z,29.58
2019-02-24T02:10:12.206Z,29.61
2019-02-24T02:12:40.603Z,29.64
2019-02-24T02:15:09.079Z,29.75
2019-02-24T02:17:37.467Z,29.60
2019-02-24T02:20:08.420Z,29.44
2019-02-24T02:22:36.821Z,29.67
2019-02-24T02:25:07.199Z,29.52
2019-02-24T02:27:35.603Z,29.22
2019-02-24T02:30:04.353Z,29.34
2019-02-24T02:32:32.749Z,29.39
2019-02-24T02:35:01.181Z,29.44
2019-02-24T02:37:29.664Z,29.07
2019-02-24T02:39:58.062Z,29.79
2019-02-24T02:42:26.463Z,28.75
2019-02-24T02:44:54.869Z,29.21
2019-02-24T02:47:23.338Z,28.82
2019-02-24T02:49:51.731Z,29.57
2019-02-24T02:52:20.120Z,28.86
2019-02-24T02:54:48.523Z,29.19
2019-02-24T02:57:16.923Z,29.49
2019-02-24T02:59:45.317Z,29.21
2019-02-24T03:02:23.788Z,29.38
2019-02-24T03:04:43.881Z,28.99
2019-02-24T03:07:13.905Z,29.35
2019-02-24T03:09:42.444Z,28.89
2019-02-24T03:12:10.848Z,29.22
2019-02-24T03:14:39.282Z,29.36
2019-02-24T03:17:07.681Z,29.35
2019-02-24T03:19:36.113Z,29.10
2019-02-24T03:22:04.511Z,29.43
2019-02-24T03:24:32.979Z,29.68
2019-02-24T03:27:01.362Z,29.08
2019-02-24T03:29:29.800Z,29.30
2019-02-24T03:31:58.202Z,29.20
2019-02-24T03:34:26.636Z,29.45
2019-02-24T03:36:55.043Z,29.63
2019-02-24T03:39:23.467Z,29.44
2019-02-24T03:41:51.859Z,29.42
2019-02-24T03:44:20.314Z,29.55
2019-02-24T03:46:48.712Z,29.63
2019-02-24T03:49:17.144Z,29.44
2019-02-24T03:51:45.535Z,29.25
2019-02-24T03:54:14.041Z,29.14
2019-02-24T03:56:42.437Z,29.01
2019-02-24T03:59:15.042Z,29.39
2019-02-24T04:01:41.003Z,29.45
2019-02-24T04:04:09.436Z,28.61
2019-02-24T04:06:37.828Z,29.61
2019-02-24T04:09:06.459Z,29.59
2019-02-24T04:11:34.860Z,29.38
2019-02-24T04:14:03.261Z,29.18
2019-02-24T04:16:31.686Z,29.32
2019-02-24T04:19:00.083Z,29.27
2019-02-24T04:21:28.551Z,29.06
2019-02-24T04:23:56.961Z,29.40
2019-02-24T04:26:25.351Z,29.21
2019-02-24T04:28:53.753Z,29.38
2019-02-24T04:31:22.156Z,29.32
2019-02-24T04:33:50.544Z,29.17
2019-02-24T04:36:18.953Z,29.34
2019-02-24T04:38:47.346Z,29.20
2019-02-24T04:41:15.752Z,28.94
2019-02-24T04:43:44.141Z,29.15
2019-02-24T04:46:12.548Z,28.77
2019-02-24T04:48:41.144Z,29.15
2019-02-24T04:51:09.540Z,29.15
2019-02-24T04:53:37.942Z,29.05
2019-02-24T04:56:06.403Z,29.17
2019-02-24T04:58:34.871Z,28.77
2019-02-24T05:01:03.285Z,28.78
2019-02-24T05:03:31.672Z,28.96
2019-02-24T05:06:00.072Z,29.02
2019-02-24T05:08:28.569Z,28.61
2019-02-24T05:10:56.973Z,28.77
2019-02-24T05:13:25.357Z,28.83
2019-02-24T05:15:53.771Z,29.29
2019-02-24T05:18:22.273Z,28.91
2019-02-24T05:20:50.665Z,28.83
2019-02-24T05:23:19.080Z,28.48
2019-02-24T05:25:47.492Z,28.46
2019-02-24T05:28:15.897Z,28.74
2019-02-24T05:30:44.298Z,28.71
2019-02-24T05:33:12.701Z,28.69
2019-02-24T05:35:41.105Z,28.65
2019-02-24T05:38:09.504Z,28.80
2019-02-24T05:40:37.899Z,28.64
2019-02-24T05:43:06.370Z,28.51
2019-02-24T05:45:34.808Z,28.72
2019-02-24T05:48:03.276Z,28.29
2019-02-24T05:50:31.696Z,28.50
2019-02-24T05:53:00.089Z,28.35
2019-02-24T05:55:28.532Z,28.38
2019-02-24T05:57:56.929Z,28.64
2019-02-24T06:00:25.390Z,28.55
2019-02-24T06:02:53.792Z,28.59
2019-02-24T06:05:22.241Z,28.79
2019-02-24T06:07:50.644Z,28.66
2019-02-24T06:10:19.064Z,28.08
2019-02-24T06:12:47.465Z,28.78
2019-02-24T06:15:15.902Z,29.00
2019-02-24T06:17:44.363Z,28.70
2019-02-24T06:20:12.783Z,28.97
2019-02-24T06:22:41.180Z,28.98
2019-02-24T06:25:09.591Z,28.93
2019-02-24T06:27:38.007Z,28.89
2019-02-24T06:30:08.181Z,28.70
2019-02-24T06:32:36.571Z,28.87
2019-02-24T06:35:06.945Z,28.83
2019-02-24T06:37:35.345Z,28.44
2019-02-24T06:40:04.411Z,29.08
2019-02-24T06:42:32.814Z,29.15
2019-02-24T06:45:01.212Z,28.31
2019-02-24T06:47:29.619Z,28.64
2019-02-24T06:49:58.043Z,29.19
2019-02-24T06:52:28.053Z,29.36
2019-02-24T06:54:56.619Z,29.40
2019-02-24T06:57:25.025Z,29.68
2019-02-24T06:59:53.429Z,29.35
2019-02-24T07:02:21.849Z,29.49
2019-02-24T07:04:50.248Z,29.65
2019-02-24T07:07:18.763Z,29.64
2019-02-24T07:09:47.230Z,29.48
2019-02-24T07:12:15.651Z,29.19
2019-02-24T07:14:44.059Z,29.63
2019-02-24T07:17:12.504Z,29.92
2019-02-24T07:19:40.906Z,29.23
2019-02-24T07:22:09.337Z,30.06
2019-02-24T07:24:37.732Z,30.23
2019-02-24T07:27:06.159Z,30.08
2019-02-24T07:29:34.610Z,30.31
2019-02-24T07:32:03.051Z,30.03
2019-02-24T07:34:31.461Z,30.04
2019-02-24T07:36:59.875Z,30.16
2019-02-24T07:39:28.274Z,29.91
2019-02-24T07:41:56.681Z,29.51
2019-02-24T07:44:25.146Z,30.32
2019-02-24T07:46:53.549Z,30.64
2019-02-24T07:49:21.964Z,30.37
2019-02-24T07:51:50.379Z,30.11
2019-02-24T07:54:18.780Z,30.25
2019-02-24T07:56:47.190Z,30.84
2019-02-24T07:59:15.614Z,30.85
2019-02-24T08:01:44.029Z,30.43
2019-02-24T08:04:12.425Z,30.62
2019-02-24T08:06:40.823Z,30.72
2019-02-24T08:09:09.220Z,30.67
2019-02-24T08:11:37.633Z,30.89
2019-02-24T08:14:06.038Z,30.67
2019-02-24T08:16:34.486Z,31.75
2019-02-24T08:19:02.932Z,31.74
2019-02-24T08:21:31.333Z,31.91
2019-02-24T08:23:59.737Z,31.62
2019-02-24T08:26:28.148Z,31.78
2019-02-24T08:28:56.556Z,31.92
2019-02-24T08:31:24.986Z,31.65
2019-02-24T08:33:53.395Z,31.47
2019-02-24T08:36:21.894Z,31.36
2019-02-24T08:38:50.362Z,31.39
2019-02-24T08:41:18.781Z,31.34
2019-02-24T08:43:47.184Z,31.36
2019-02-24T08:46:15.613Z,31.37
2019-02-24T08:48:44.010Z,31.31
2019-02-24T08:51:12.501Z,31.21
2019-02-24T08:53:40.899Z,31.12
2019-02-24T08:56:09.339Z,31.16
2019-02-24T08:58:37.759Z,31.24
2019-02-24T09:01:06.204Z,31.33
2019-02-24T09:03:34.597Z,31.33
2019-02-24T09:06:03.014Z,31.39
2019-02-24T09:08:31.410Z,31.54
2019-02-24T09:10:59.808Z,31.51
2019-02-24T09:13:28.281Z,31.56
2019-02-24T09:15:56.678Z,31.69
2019-02-24T09:18:25.074Z,31.73
2019-02-24T09:20:53.476Z,31.78
2019-02-24T09:23:21.946Z,31.93
2019-02-24T09:25:50.359Z,32.07
2019-02-24T09:28:18.764Z,32.03
2019-02-24T09:30:47.165Z,32.20
2019-02-24T09:33:15.651Z,32.25
2019-02-24T09:35:44.053Z,32.34
2019-02-24T09:38:12.505Z,32.47
2019-02-24T09:40:40.906Z,32.45
2019-02-24T09:43:09.314Z,32.68
2019-02-24T09:45:37.724Z,33.14
2019-02-24T09:48:06.129Z,33.00
2019-02-24T09:50:34.568Z,33.16
2019-02-24T09:53:02.978Z,33.13
2019-02-24T09:55:31.369Z,33.19
2019-02-24T09:57:59.775Z,33.18
2019-02-24T10:00:28.176Z,33.17
2019-02-24T10:02:57.635Z,33.41
2019-02-24T10:05:26.205Z,33.41
2019-02-24T10:07:54.631Z,33.47
2019-02-24T10:10:23.098Z,33.51
2019-02-24T10:12:51.527Z,33.44
2019-02-24T10:15:19.929Z,33.54
2019-02-24T10:17:48.379Z,33.58
2019-02-24T10:20:16.794Z,33.66
2019-02-24T10:22:45.212Z,33.70
2019-02-24T10:25:13.612Z,33.70
2019-02-24T10:27:42.105Z,33.63
2019-02-24T10:30:12.538Z,33.76
2019-02-24T10:32:40.988Z,33.74
2019-02-24T10:35:09.385Z,33.78
2019-02-24T10:37:37.812Z,33.84
2019-02-24T10:40:12.627Z,33.84
2019-02-24T10:42:41.194Z,33.93
2019-02-24T10:45:12.258Z,33.95
2019-02-24T10:47:40.664Z,34.25
2019-02-24T10:50:11.807Z,34.13
2019-02-24T10:52:40.215Z,34.40
2019-02-24T10:55:08.783Z,34.32
2019-02-24T10:57:37.290Z,34.59
2019-02-24T11:00:17.724Z,34.46
2019-02-24T11:02:46.123Z,34.59
2019-02-24T11:05:15.390Z,34.63
2019-02-24T11:07:43.861Z,34.50
2019-02-24T11:10:12.266Z,34.57
2019-02-24T11:12:40.743Z,34.67
2019-02-24T11:15:11.159Z,34.69
2019-02-24T11:17:39.564Z,34.58
2019-02-24T11:20:14.174Z,34.94
2019-02-24T11:22:42.589Z,35.07
2019-02-24T11:25:11.780Z,34.87
2019-02-24T11:27:40.199Z,34.90
2019-02-24T11:30:11.577Z,34.75
2019-02-24T11:32:40.031Z,34.76
2019-02-24T11:35:12.212Z,34.94
2019-02-24T11:37:40.657Z,34.88
2019-02-24T11:40:11.451Z,34.89
2019-02-24T11:42:39.891Z,35.05
2019-02-24T11:45:09.433Z,34.89
2019-02-24T11:47:37.884Z,35.06
2019-02-24T11:50:08.729Z,35.04
2019-02-24T11:52:37.162Z,34.94
2019-02-24T11:55:06.798Z,35.02
2019-02-24T11:57:35.219Z,35.06
2019-02-24T12:00:03.627Z,35.04
2019-02-24T12:02:34.429Z,35.01
2019-02-24T12:05:02.204Z,35.06
2019-02-24T12:07:30.632Z,34.95
2019-02-24T12:09:59.034Z,35.17
2019-02-24T12:12:27.451Z,35.00
2019-02-24T12:14:55.857Z,34.95
2019-02-24T12:17:24.297Z,35.14
2019-02-24T12:19:52.702Z,34.89
2019-02-24T12:22:21.140Z,34.36
2019-02-24T12:24:49.539Z,34.35
2019-02-24T12:27:17.958Z,34.32
2019-02-24T12:29:46.357Z,34.23
2019-02-24T12:32:14.755Z,34.26
2019-02-24T12:34:43.223Z,34.20
2019-02-24T12:37:11.631Z,34.13
2019-02-24T12:39:40.144Z,34.16
2019-02-24T12:42:08.590Z,34.08
2019-02-24T12:44:37.259Z,34.13
2019-02-24T12:47:05.666Z,34.13
2019-02-24T12:49:34.093Z,34.04
2019-02-24T12:52:02.523Z,34.10
2019-02-24T12:54:30.938Z,34.02
2019-02-24T12:56:59.355Z,34.08
2019-02-24T12:59:28.509Z,33.95
2019-02-24T13:02:05.271Z,34.10
2019-02-24T13:04:28.841Z,34.00
2019-02-24T13:06:57.735Z,34.02
2019-02-24T13:09:26.202Z,34.07
2019-02-24T13:11:54.604Z,33.92
2019-02-24T13:14:23.009Z,34.08
2019-02-24T13:16:51.427Z,34.09
2019-02-24T13:19:19.828Z,34.03
2019-02-24T13:21:48.224Z,33.97
2019-02-24T13:24:16.653Z,34.00
2019-02-24T13:26:45.053Z,33.97
2019-02-24T13:29:13.462Z,33.99
2019-02-24T13:31:41.853Z,33.92
2019-02-24T13:34:10.262Z,33.98
2019-02-24T13:36:38.762Z,33.93
2019-02-24T13:39:07.272Z,33.96
2019-02-24T13:41:35.678Z,33.96
2019-02-24T13:44:04.080Z,33.94
2019-02-24T13:46:32.576Z,33.95
2019-02-24T13:49:00.981Z,34.01
2019-02-24T13:51:29.399Z,33.95
2019-02-24T13:53:57.801Z,33.94
2019-02-24T13:56:26.202Z,33.94
2019-02-24T13:58:54.707Z,34.02
2019-02-24T14:01:23.468Z,33.87
2019-02-24T14:03:51.867Z,33.96
2019-02-24T14:06:20.509Z,33.85
2019-02-24T14:08:48.938Z,33.90
2019-02-24T14:11:17.329Z,33.88
2019-02-24T14:13:45.747Z,33.80
2019-02-24T14:16:14.149Z,33.88
2019-02-24T14:18:42.662Z,33.89
2019-02-24T14:21:11.068Z,33.85
2019-02-24T14:23:39.498Z,33.94
2019-02-24T14:26:07.971Z,33.89
2019-02-24T14:28:38.253Z,33.88
2019-02-24T14:31:06.669Z,33.90
2019-02-24T14:33:35.115Z,33.95
2019-02-24T14:36:03.513Z,33.87
2019-02-24T14:38:31.948Z,33.81
2019-02-24T14:41:00.348Z,33.88
2019-02-24T14:43:28.795Z,33.85
2019-02-24T14:45:57.196Z,33.76
2019-02-24T14:48:25.628Z,33.82
2019-02-24T14:50:54.028Z,33.79
2019-02-24T14:53:22.442Z,33.74
2019-02-24T14:55:50.850Z,33.73
2019-02-24T14:58:19.246Z,33.77
2019-02-24T15:00:49.277Z,33.75
2019-02-24T15:03:17.681Z,33.67
2019-02-24T15:05:46.077Z,33.74
2019-02-24T15:08:14.486Z,33.69
2019-02-24T15:10:42.887Z,33.71
2019-02-24T15:13:11.282Z,33.79
2019-02-24T15:15:39.684Z,33.77
2019-02-24T15:18:08.087Z,33.83
2019-02-24T15:20:36.498Z,33.64
2019-02-24T15:23:06.668Z,33.56
2019-02-24T15:25:35.030Z,33.38
2019-02-24T15:28:03.253Z,33.42
2019-02-24T15:30:38.977Z,33.39
2019-02-24T15:33:07.377Z,33.32
2019-02-24T15:35:35.914Z,33.25
2019-02-24T15:38:04.324Z,33.28
2019-02-24T15:40:32.745Z,33.28
2019-02-24T15:43:01.143Z,33.26
2019-02-24T15:45:29.569Z,33.33
2019-02-24T15:47:59.603Z,33.31
2019-02-24T15:50:28.039Z,33.49
2019-02-24T15:52:56.444Z,33.62
2019-02-24T15:55:24.880Z,33.66
2019-02-24T15:57:53.281Z,33.64
2019-02-24T16:00:22.975Z,33.81
2019-02-24T16:03:00.646Z,33.85
2019-02-24T16:05:21.549Z,33.83
2019-02-24T16:07:49.942Z,33.65
2019-02-24T16:10:22.517Z,33.94
2019-02-24T16:12:50.921Z,33.97
2019-02-24T16:15:26.360Z,33.95
2019-02-24T16:17:54.594Z,34.02
2019-02-24T16:20:31.162Z,34.06
2019-02-24T16:22:59.565Z,34.05
2019-02-24T16:25:27.970Z,34.13
2019-02-24T16:27:56.375Z,34.17
2019-02-24T16:30:24.786Z,34.19
2019-02-24T16:32:53.186Z,34.18
2019-02-24T16:35:21.589Z,34.14
2019-02-24T16:37:49.991Z,34.19
2019-02-24T16:40:27.633Z,34.21
2019-02-24T16:42:56.039Z,34.21
2019-02-24T16:45:24.437Z,34.12
2019-02-24T16:47:52.836Z,34.20
2019-02-24T16:50:22.284Z,34.18
2019-02-24T16:52:50.739Z,34.10
2019-02-24T16:55:19.141Z,34.07
2019-02-24T16:57:50.309Z,34.14
2019-02-24T17:00:24.000Z,34.08
2019-02-24T17:02:52.399Z,34.14
2019-02-24T17:05:20.831Z,34.12
2019-02-24T17:07:49.440Z,34.13
2019-02-24T17:10:23.935Z,34.11
2019-02-24T17:12:52.340Z,34.21
2019-02-24T17:15:20.782Z,34.21
2019-02-24T17:17:49.180Z,34.17
2019-02-24T17:20:26.739Z,34.13
2019-02-24T17:22:55.212Z,34.20
2019-02-24T17:25:23.676Z,34.10
2019-02-24T17:27:52.082Z,34.14
2019-02-24T17:30:20.499Z,34.20
2019-02-24T17:32:48.907Z,34.21
2019-02-24T17:35:17.358Z,34.18
2019-02-24T17:37:45.750Z,34.12
2019-02-24T17:40:19.522Z,34.17
2019-02-24T17:42:49.028Z,34.17
2019-02-24T17:45:17.796Z,34.20
2019-02-24T17:47:46.194Z,34.13
2019-02-24T17:50:16.629Z,34.13
2019-02-24T17:52:45.029Z,34.17
2019-02-24T17:55:20.137Z,34.16
2019-02-24T17:57:50.162Z,34.06
2019-02-24T18:00:42.341Z,33.94
2019-02-24T18:03:10.765Z,34.03
2019-02-24T18:05:39.174Z,34.01
2019-02-24T18:08:07.571Z,33.98
2019-02-24T18:10:35.982Z,34.21
2019-02-24T18:13:04.379Z,34.03
2019-02-24T18:15:32.866Z,34.19
2019-02-24T18:18:01.264Z,34.15
2019-02-24T18:20:29.772Z,34.30
2019-02-24T18:22:58.183Z,34.24
2019-02-24T18:25:26.622Z,34.47
2019-02-24T18:27:55.029Z,34.57
2019-02-24T18:30:25.661Z,34.36
2019-02-24T18:32:54.197Z,34.27
2019-02-24T18:35:22.633Z,34.51
2019-02-24T18:37:51.056Z,34.55
2019-02-24T18:40:19.509Z,34.73
2019-02-24T18:42:47.918Z,34.67
2019-02-24T18:45:16.337Z,34.84
2019-02-24T18:47:44.760Z,35.08
2019-02-24T18:50:15.913Z,34.90
2019-02-24T18:52:44.315Z,34.89
2019-02-24T18:55:13.191Z,34.64
2019-02-24T18:57:41.586Z,35.13
2019-02-24T19:00:12.960Z,34.69
2019-02-24T19:02:41.364Z,34.76
2019-02-24T19:05:09.958Z,34.67
2019-02-24T19:07:38.353Z,34.87
2019-02-24T19:10:10.144Z,34.86
2019-02-24T19:12:38.549Z,34.97
2019-02-24T19:15:15.488Z,34.81
2019-02-24T19:17:43.893Z,35.02
2019-02-24T19:20:15.036Z,34.91
2019-02-24T19:22:43.432Z,34.86
2019-02-24T19:25:12.336Z,34.82
2019-02-24T19:27:40.734Z,34.80
2019-02-24T19:30:12.175Z,34.97
2019-02-24T19:32:40.702Z,34.91
2019-02-24T19:35:10.738Z,35.04
2019-02-24T19:37:40.562Z,34.97
2019-02-24T19:40:12.233Z,34.97
2019-02-24T19:42:40.655Z,34.73
2019-02-24T19:45:11.597Z,34.73
2019-02-24T19:47:40.016Z,34.55
2019-02-24T19:50:12.005Z,34.69
2019-02-24T19:52:40.628Z,34.53
2019-02-24T19:55:10.573Z,34.51
2019-02-24T19:57:39.018Z,34.05
2019-02-24T20:00:24.893Z,34.06
2019-02-24T20:02:53.292Z,34.20
2019-02-24T20:05:21.772Z,34.10
2019-02-24T20:07:50.178Z,33.72
2019-02-24T20:10:21.179Z,33.92
2019-02-24T20:12:49.596Z,33.92
2019-02-24T20:15:18.059Z,33.81
2019-02-24T20:17:48.099Z,33.73
2019-02-24T20:20:17.236Z,33.55
2019-02-24T20:22:45.806Z,33.77
2019-02-24T20:25:16.511Z,33.63
2019-02-24T20:27:44.911Z,33.82
2019-02-24T20:30:28.222Z,33.71
2019-02-24T20:32:56.667Z,33.38
2019-02-24T20:35:25.081Z,33.68
2019-02-24T20:37:53.486Z,33.63
2019-02-24T20:40:21.900Z,33.44
2019-02-24T20:42:50.289Z,33.49
2019-02-24T20:45:20.886Z,33.59
2019-02-24T20:47:49.289Z,33.60
2019-02-24T20:50:23.303Z,33.43
2019-02-24T20:52:51.725Z,33.67
2019-02-24T20:55:21.754Z,33.72
2019-02-24T20:57:50.149Z,33.68
2019-02-24T21:00:27.488Z,33.68
2019-02-24T21:02:55.940Z,33.63
2019-02-24T21:05:24.322Z,33.54
2019-02-24T21:07:52.802Z,33.61
2019-02-24T21:10:21.204Z,33.60
2019-02-24T21:12:49.642Z,33.65
2019-02-24T21:15:18.578Z,33.25
2019-02-24T21:17:47.001Z,33.77
2019-02-24T21:20:17.848Z,33.73
2019-02-24T21:22:46.285Z,33.60
2019-02-24T21:25:14.787Z,33.72
2019-02-24T21:27:44.901Z,33.80
2019-02-24T21:30:15.882Z,33.62
2019-02-24T21:32:44.283Z,33.86
2019-02-24T21:35:13.023Z,33.57
2019-02-24T21:37:41.463Z,33.65
2019-02-24T21:40:11.987Z,33.82
2019-02-24T21:42:40.428Z,33.62
2019-02-24T21:45:11.824Z,33.64
2019-02-24T21:47:40.263Z,33.83
2019-02-24T21:50:12.069Z,33.65
2019-02-24T21:52:40.469Z,33.67
2019-02-24T21:55:09.921Z,33.70
2019-02-24T21:57:38.317Z,33.74
2019-02-24T22:00:18.619Z,33.70
2019-02-24T22:02:47.021Z,33.63
2019-02-24T22:05:15.421Z,33.69
2019-02-24T22:07:45.169Z,33.66
2019-02-24T22:10:14.803Z,33.73
2019-02-24T22:12:43.449Z,33.75
2019-02-24T22:15:28.047Z,33.58
2019-02-24T22:17:56.455Z,33.95
2019-02-24T22:20:24.915Z,33.76
2019-02-24T22:22:53.327Z,33.78
2019-02-24T22:25:21.744Z,33.75
2019-02-24T22:27:50.145Z,33.88
2019-02-24T22:30:20.854Z,33.76
2019-02-24T22:32:49.270Z,33.78
2019-02-24T22:35:17.671Z,33.79
2019-02-24T22:37:46.109Z,33.83
2019-02-24T22:40:16.768Z,33.65
2019-02-24T22:42:46.116Z,33.76
2019-02-24T22:45:21.771Z,33.63
2019-02-24T22:47:50.204Z,33.46
2019-02-24T22:50:18.603Z,33.67
2019-02-24T22:52:47.167Z,33.83
2019-02-24T22:55:16.516Z,33.74
2019-02-24T22:57:44.964Z,33.59
2019-02-24T23:00:36.687Z,33.79
2019-02-24T23:03:05.482Z,33.64
2019-02-24T23:05:33.903Z,33.60
2019-02-24T23:08:02.432Z,33.47
2019-02-24T23:10:30.830Z,33.40
2019-02-24T23:12:59.280Z,33.46
2019-02-24T23:15:27.697Z,33.48
2019-02-24T23:17:56.121Z,33.62
2019-02-24T23:20:24.525Z,33.62
2019-02-24T23:22:52.963Z,33.63
2019-02-24T23:25:21.530Z,33.62
2019-02-24T23:27:50.021Z,33.51
2019-02-24T23:30:18.425Z,33.57
2019-02-24T23:32:46.926Z,33.68
2019-02-24T23:35:15.324Z,33.72
2019-02-24T23:37:43.768Z,33.54
2019-02-24T23:40:12.171Z,33.41
2019-02-24T23:42:40.577Z,33.44
2019-02-24T23:45:10.997Z,33.67
2019-02-24T23:47:39.505Z,33.40
2019-02-24T23:50:10.865Z,33.50
2019-02-24T23:52:39.261Z,33.36
2019-02-24T23:55:08.600Z,33.38
2019-02-24T23:57:37.008Z,33.22
